Weather at Lebanon Springfield Airport

Public forecast

Using degrees Fahrenheit for public forecast. Weather courtesy of forecast.io.

Current aviation weather report (METAR) for Lebanon Springfield Airport

Retrieved 2020/11/26 00:35 UTC (0 seconds ago):

K6I2 260035Z AUTO 19013G20KT 10SM BKN031 16/14 A2983 RMK AO2

Closest aviation forecast (TAF) to Lebanon Springfield Airport

Closest forecast is Godman Army Air Field, 38.4 nm (71.0 km) WNW. Retrieved 2020/11/25 20:04 UTC (4 hours ago):

TAF KFTK 252000Z 2520/2702 18010G15KT 9999 BKN018 OVC040 QNH2975INS TEMPO 2520/2523 4800 -SHRA OVC020 BECMG 2523/2524 23014G22KT 9999 NSW BKN025 OVC050 QNH2982INS BECMG 2606/2607 25008KT 9999 BKN015 OVC040 QNH2985INS TX16/2520Z TN08/2612Z LAST NO AMDS AFT 2504 NEXT 3012